createdAt,value
2023-01-07T00:01:17.126Z,9.07
2023-01-07T00:04:02.507Z,9.54
2023-01-07T00:06:47.523Z,8.87
2023-01-07T00:09:33.034Z,9.22
2023-01-07T00:12:18.128Z,9.77
2023-01-07T00:15:03.491Z,9.79
2023-01-07T00:17:48.459Z,9.50
2023-01-07T00:20:33.364Z,9.23
2023-01-07T00:23:18.106Z,9.57
2023-01-07T00:26:03.334Z,8.98
2023-01-07T00:28:48.741Z,9.99
2023-01-07T00:31:33.625Z,9.64
2023-01-07T00:34:18.583Z,9.86
2023-01-07T00:37:03.732Z,9.74
2023-01-07T00:39:49.075Z,10.14
2023-01-07T00:42:34.159Z,9.74
2023-01-07T00:45:18.988Z,10.45
2023-01-07T00:48:03.807Z,10.18
2023-01-07T00:50:48.724Z,9.80
2023-01-07T00:53:33.774Z,9.42
2023-01-07T00:56:18.673Z,9.21
2023-01-07T00:59:03.833Z,9.47
2023-01-07T01:01:49.453Z,9.39
2023-01-07T01:04:34.596Z,9.20
2023-01-07T01:07:19.514Z,9.33
2023-01-07T01:10:04.715Z,8.73
2023-01-07T01:12:49.612Z,8.25
2023-01-07T01:15:34.677Z,8.58
2023-01-07T01:18:19.800Z,8.45
2023-01-07T01:21:05.172Z,8.39
2023-01-07T01:23:50.593Z,8.30
2023-01-07T01:26:35.524Z,7.87
2023-01-07T01:29:20.595Z,8.48
2023-01-07T01:32:06.056Z,8.15
2023-01-07T01:34:51.511Z,8.23
2023-01-07T01:37:36.490Z,8.15
2023-01-07T01:40:21.643Z,8.30
2023-01-07T01:43:06.872Z,8.10
2023-01-07T01:45:51.642Z,8.17
2023-01-07T01:48:36.916Z,8.36
2023-01-07T01:51:22.189Z,8.37
2023-01-07T01:54:07.181Z,8.15
2023-01-07T01:56:52.122Z,8.50
2023-01-07T01:59:36.983Z,8.01
2023-01-07T02:02:21.847Z,8.19
2023-01-07T02:05:07.417Z,8.65
2023-01-07T02:07:52.362Z,8.64
2023-01-07T02:10:37.072Z,8.73
2023-01-07T02:13:22.270Z,9.06
2023-01-07T02:16:07.710Z,9.38
2023-01-07T02:18:52.675Z,9.03
2023-01-07T02:21:37.618Z,9.37
2023-01-07T02:24:22.389Z,9.42
2023-01-07T02:27:07.526Z,8.92
2023-01-07T02:29:53.201Z,9.36
2023-01-07T02:32:38.583Z,9.11
2023-01-07T02:35:23.625Z,9.10
2023-01-07T02:38:08.909Z,8.84
2023-01-07T02:40:54.234Z,9.01
2023-01-07T02:43:39.075Z,8.78
2023-01-07T02:46:24.345Z,9.17
2023-01-07T02:49:09.376Z,9.72
2023-01-07T02:51:54.671Z,9.16
2023-01-07T02:54:40.103Z,8.81
2023-01-07T02:57:24.996Z,8.87
2023-01-07T03:00:09.994Z,8.72
2023-01-07T03:02:54.825Z,8.51
2023-01-07T03:05:40.109Z,9.03
2023-01-07T03:08:25.498Z,8.57
2023-01-07T03:11:10.643Z,8.73
2023-01-07T03:13:55.989Z,8.62
2023-01-07T03:16:41.145Z,8.45
2023-01-07T03:19:26.503Z,8.34
2023-01-07T03:22:11.758Z,8.38
2023-01-07T03:24:56.828Z,8.91
2023-01-07T03:27:42.082Z,8.67
2023-01-07T03:30:27.296Z,8.81
2023-01-07T03:33:12.780Z,8.67
2023-01-07T03:35:57.679Z,8.79
2023-01-07T03:38:43.035Z,9.08
2023-01-07T03:41:28.130Z,9.09
2023-01-07T03:44:13.068Z,8.96
2023-01-07T03:46:57.884Z,8.84
2023-01-07T03:49:42.755Z,8.29
2023-01-07T03:52:27.710Z,8.91
2023-01-07T03:55:12.565Z,8.85
2023-01-07T03:57:58.279Z,8.84
2023-01-07T04:00:43.738Z,8.73
2023-01-07T04:03:28.550Z,8.70
2023-01-07T04:06:13.598Z,8.54
2023-01-07T04:08:59.191Z,8.74
2023-01-07T04:11:44.465Z,8.92
2023-01-07T04:14:29.860Z,8.49
2023-01-07T04:17:14.772Z,8.78
2023-01-07T04:19:59.518Z,8.84
2023-01-07T04:22:44.368Z,8.40
2023-01-07T04:25:29.978Z,8.37
2023-01-07T04:28:14.867Z,8.45
2023-01-07T04:30:59.895Z,8.32
2023-01-07T04:33:44.999Z,8.28
2023-01-07T04:36:30.252Z,8.23
2023-01-07T04:39:15.397Z,7.90
2023-01-07T04:42:00.621Z,7.96
2023-01-07T04:44:45.486Z,7.59
2023-01-07T04:47:30.551Z,7.65
2023-01-07T04:50:15.415Z,7.47
2023-01-07T04:53:00.181Z,7.55
2023-01-07T04:55:46.478Z,7.71
2023-01-07T04:58:31.601Z,7.88
2023-01-07T05:01:17.259Z,7.67
2023-01-07T05:04:02.548Z,7.28
2023-01-07T05:06:47.510Z,7.73
2023-01-07T05:09:32.778Z,8.00
2023-01-07T05:12:18.195Z,8.27
2023-01-07T05:15:03.481Z,7.63
2023-01-07T05:17:48.257Z,7.73
2023-01-07T05:20:33.408Z,8.47
2023-01-07T05:23:18.689Z,7.96
2023-01-07T05:26:03.531Z,7.79
2023-01-07T05:28:48.424Z,8.01
2023-01-07T05:31:33.201Z,8.25
2023-01-07T05:34:18.553Z,9.05
2023-01-07T05:37:03.304Z,9.20
2023-01-07T05:39:48.428Z,9.08
2023-01-07T05:42:33.506Z,9.05
2023-01-07T05:45:18.379Z,9.53
2023-01-07T05:48:03.361Z,9.53
2023-01-07T05:50:48.186Z,9.79
2023-01-07T05:53:33.545Z,9.50
2023-01-07T05:56:18.639Z,9.22
2023-01-07T05:59:03.585Z,9.11
2023-01-07T06:01:48.473Z,9.90
2023-01-07T06:04:33.510Z,8.74
2023-01-07T06:07:18.293Z,8.76
2023-01-07T06:10:03.380Z,8.43
2023-01-07T06:12:48.645Z,8.53
2023-01-07T06:15:33.956Z,7.88
2023-01-07T06:18:19.526Z,8.94
2023-01-07T06:21:04.745Z,8.12
2023-01-07T06:23:49.652Z,8.13
2023-01-07T06:26:34.429Z,7.92
2023-01-07T06:29:19.352Z,8.11
2023-01-07T06:32:04.236Z,7.80
2023-01-07T06:34:49.174Z,7.91
2023-01-07T06:37:34.764Z,7.96
2023-01-07T06:40:19.895Z,8.26
2023-01-07T06:43:04.780Z,8.35
2023-01-07T06:45:49.618Z,8.17
2023-01-07T06:48:34.464Z,7.83
2023-01-07T06:51:19.444Z,7.16
2023-01-07T06:54:04.378Z,6.64
2023-01-07T06:56:49.308Z,6.84
2023-01-07T06:59:34.200Z,5.88
2023-01-07T07:02:19.856Z,5.85
2023-01-07T07:05:05.202Z,5.74
2023-01-07T07:07:50.212Z,5.32
2023-01-07T07:10:35.459Z,5.37
2023-01-07T07:13:20.564Z,5.43
2023-01-07T07:16:05.937Z,5.52
2023-01-07T07:18:50.748Z,5.19
2023-01-07T07:21:35.866Z,5.51
2023-01-07T07:24:21.378Z,5.31
2023-01-07T07:27:06.730Z,5.40
2023-01-07T07:29:51.921Z,5.69
2023-01-07T07:32:37.055Z,5.76
2023-01-07T07:35:22.124Z,5.94
2023-01-07T07:38:07.129Z,6.37
2023-01-07T07:40:52.539Z,5.58
2023-01-07T07:43:37.404Z,5.76
2023-01-07T07:46:22.459Z,5.99
2023-01-07T07:49:07.615Z,5.89
2023-01-07T07:51:52.564Z,6.49
2023-01-07T07:54:37.516Z,6.30
2023-01-07T07:57:22.542Z,6.34
2023-01-07T08:00:07.487Z,6.30
2023-01-07T08:02:52.334Z,6.53
2023-01-07T08:05:37.262Z,6.19
2023-01-07T08:08:22.327Z,6.25
2023-01-07T08:11:07.618Z,6.18
2023-01-07T08:13:52.710Z,6.30
2023-01-07T08:16:37.701Z,6.02
2023-01-07T08:19:22.949Z,6.11
2023-01-07T08:22:07.835Z,5.77
2023-01-07T08:24:52.861Z,5.75
2023-01-07T08:27:37.800Z,5.75
2023-01-07T08:30:22.841Z,5.72
2023-01-07T08:33:08.375Z,5.56
2023-01-07T08:35:53.672Z,5.78
2023-01-07T08:38:38.689Z,5.09
2023-01-07T08:41:23.406Z,5.00
2023-01-07T08:44:08.271Z,4.58
2023-01-07T08:46:53.327Z,3.83
2023-01-07T08:49:38.533Z,3.93
2023-01-07T08:52:23.488Z,3.60
2023-01-07T08:55:08.377Z,3.45
2023-01-07T08:57:53.386Z,3.57
2023-01-07T09:00:38.384Z,3.79
2023-01-07T09:03:23.298Z,3.65
2023-01-07T09:06:08.146Z,3.86
2023-01-07T09:08:53.017Z,3.79
2023-01-07T09:11:37.850Z,4.17
2023-01-07T09:14:22.689Z,4.05
2023-01-07T09:17:07.500Z,4.64
2023-01-07T09:19:52.391Z,4.40
2023-01-07T09:22:37.425Z,4.49
2023-01-07T09:25:22.461Z,4.16
2023-01-07T09:28:07.407Z,3.73
2023-01-07T09:30:52.061Z,3.66
2023-01-07T09:33:37.076Z,3.86
2023-01-07T09:36:21.858Z,3.97
2023-01-07T09:39:06.749Z,3.94
2023-01-07T09:41:51.502Z,3.94
2023-01-07T09:44:36.444Z,4.25
2023-01-07T09:47:21.209Z,4.09
2023-01-07T09:50:06.176Z,4.11
2023-01-07T09:52:51.146Z,3.75
2023-01-07T09:55:36.027Z,3.77
2023-01-07T09:58:20.876Z,3.95
2023-01-07T10:01:05.691Z,3.81
2023-01-07T10:03:50.493Z,3.84
2023-01-07T10:06:43.572Z,4.03
2023-01-07T10:09:29.209Z,3.77
2023-01-07T10:12:14.228Z,3.63
2023-01-07T10:14:59.157Z,3.55
2023-01-07T10:17:44.494Z,3.52
2023-01-07T10:20:29.379Z,3.48
2023-01-07T10:23:14.347Z,3.25
2023-01-07T10:25:59.221Z,3.69
2023-01-07T10:28:44.021Z,3.66
2023-01-07T10:31:29.103Z,3.86
2023-01-07T10:34:14.025Z,3.69
2023-01-07T10:36:59.410Z,3.65
2023-01-07T10:39:44.418Z,3.61
2023-01-07T10:42:29.121Z,3.61
2023-01-07T10:45:14.131Z,3.41
2023-01-07T10:47:58.992Z,3.39
2023-01-07T10:50:43.953Z,3.43
2023-01-07T10:53:28.685Z,3.39
2023-01-07T10:56:13.572Z,3.21
2023-01-07T10:58:58.474Z,3.62
2023-01-07T11:01:43.416Z,4.07
2023-01-07T11:04:28.791Z,4.55
2023-01-07T11:07:13.733Z,4.69
2023-01-07T11:09:58.721Z,5.39
2023-01-07T11:12:43.531Z,5.15
2023-01-07T11:15:28.288Z,3.68
2023-01-07T11:18:13.101Z,4.00
2023-01-07T11:20:58.087Z,4.05
2023-01-07T11:23:44.075Z,4.47
2023-01-07T11:26:29.283Z,4.34
2023-01-07T11:29:14.258Z,4.10
2023-01-07T11:31:59.258Z,4.17
2023-01-07T11:34:44.263Z,4.54
2023-01-07T11:37:29.213Z,3.81
2023-01-07T11:40:14.033Z,3.99
2023-01-07T11:42:58.994Z,3.79
2023-01-07T11:45:43.941Z,3.80
2023-01-07T11:48:49.125Z,3.94
2023-01-07T11:51:33.937Z,3.49
2023-01-07T11:54:18.776Z,3.46
2023-01-07T11:57:03.732Z,3.60
2023-01-07T11:59:48.535Z,3.78
2023-01-07T12:02:33.456Z,3.70
2023-01-07T12:05:18.232Z,3.61
2023-01-07T12:08:03.191Z,3.53
2023-01-07T12:10:47.918Z,3.24
2023-01-07T12:13:32.667Z,3.23
2023-01-07T12:16:17.601Z,3.21
2023-01-07T12:19:02.482Z,3.32
2023-01-07T12:21:47.461Z,3.36
2023-01-07T12:24:32.310Z,3.26
2023-01-07T12:27:17.271Z,3.82
2023-01-07T12:30:02.186Z,3.45
2023-01-07T12:32:46.929Z,3.33
2023-01-07T12:35:31.655Z,3.24
2023-01-07T12:38:16.400Z,3.36
2023-01-07T12:41:01.208Z,3.50
2023-01-07T12:43:46.203Z,3.64
2023-01-07T12:46:31.251Z,4.68
2023-01-07T12:49:16.176Z,3.76
2023-01-07T12:52:01.202Z,3.73
2023-01-07T12:54:46.092Z,3.37
2023-01-07T12:57:30.968Z,3.96
2023-01-07T13:00:15.738Z,4.39
2023-01-07T13:03:00.582Z,4.43
2023-01-07T13:05:45.413Z,4.92
2023-01-07T13:08:30.342Z,5.08
2023-01-07T13:11:15.307Z,5.44
2023-01-07T13:14:00.231Z,5.41
2023-01-07T13:16:45.215Z,5.58
2023-01-07T13:19:30.061Z,5.40
2023-01-07T13:22:14.973Z,5.70
2023-01-07T13:24:59.769Z,5.68
2023-01-07T13:27:44.689Z,5.30
2023-01-07T13:30:29.519Z,8.86
2023-01-07T13:33:14.395Z,5.35
2023-01-07T13:35:59.291Z,4.84
2023-01-07T13:38:44.216Z,4.77
2023-01-07T13:41:29.130Z,4.74
2023-01-07T13:44:14.086Z,4.90
2023-01-07T13:46:59.293Z,4.62
2023-01-07T13:49:56.725Z,4.59
2023-01-07T13:52:42.562Z,4.84
2023-01-07T13:55:27.435Z,4.58
2023-01-07T13:58:12.350Z,4.56
2023-01-07T14:00:57.287Z,4.15
2023-01-07T14:03:42.058Z,4.33
2023-01-07T14:06:27.008Z,4.61
2023-01-07T14:09:11.964Z,4.27
2023-01-07T14:11:58.049Z,4.23
2023-01-07T14:14:43.069Z,4.45
2023-01-07T14:17:28.193Z,4.26
2023-01-07T14:20:13.155Z,4.29
2023-01-07T14:22:58.048Z,4.55
2023-01-07T14:25:42.835Z,4.21
2023-01-07T14:28:27.845Z,4.56
2023-01-07T14:31:12.863Z,4.34
2023-01-07T14:33:57.656Z,4.13
2023-01-07T14:36:42.715Z,4.41
2023-01-07T14:39:27.505Z,4.22
2023-01-07T14:42:12.410Z,4.40
2023-01-07T14:44:57.257Z,4.42
2023-01-07T14:47:42.007Z,4.51
2023-01-07T14:50:26.936Z,4.00
2023-01-07T14:53:11.827Z,4.16
2023-01-07T14:55:56.832Z,4.36
2023-01-07T14:58:41.725Z,4.10
2023-01-07T15:01:26.931Z,4.30
2023-01-07T15:04:12.030Z,4.25
2023-01-07T15:06:56.910Z,4.40
2023-01-07T15:09:41.847Z,4.18
2023-01-07T15:12:26.751Z,4.27
2023-01-07T15:15:11.881Z,4.21
2023-01-07T15:17:57.204Z,3.89
2023-01-07T15:20:42.402Z,4.12
2023-01-07T15:23:27.195Z,4.36
2023-01-07T15:26:12.121Z,3.96
2023-01-07T15:28:56.858Z,4.21
2023-01-07T15:31:41.814Z,4.34
2023-01-07T15:34:26.885Z,4.12
2023-01-07T15:37:11.839Z,4.10
2023-01-07T15:39:56.820Z,4.55
2023-01-07T15:42:42.210Z,4.79
2023-01-07T15:45:27.175Z,5.07
2023-01-07T15:48:12.065Z,4.28
2023-01-07T15:50:57.141Z,4.51
2023-01-07T15:53:41.968Z,4.49
2023-01-07T15:56:26.817Z,4.58
2023-01-07T15:59:11.786Z,4.49
2023-01-07T16:01:56.594Z,4.39
2023-01-07T16:04:41.476Z,4.17
2023-01-07T16:07:26.238Z,4.16
2023-01-07T16:10:11.236Z,4.17
2023-01-07T16:12:56.183Z,4.39
2023-01-07T16:15:41.097Z,4.46
2023-01-07T16:18:26.093Z,4.89
2023-01-07T16:21:11.017Z,6.01
2023-01-07T16:23:56.015Z,6.27
2023-01-07T16:26:40.977Z,6.10
2023-01-07T16:29:26.093Z,6.16
2023-01-07T16:32:10.859Z,6.04
2023-01-07T16:34:55.858Z,5.84
2023-01-07T16:37:40.684Z,5.70
2023-01-07T16:40:25.586Z,6.20
2023-01-07T16:43:10.515Z,6.93
2023-01-07T16:45:55.387Z,6.31
2023-01-07T16:48:40.268Z,5.34
2023-01-07T16:51:25.184Z,5.51
2023-01-07T16:54:09.933Z,4.95
2023-01-07T16:56:54.802Z,5.74
2023-01-07T16:59:39.829Z,5.56
2023-01-07T17:02:24.660Z,5.34
2023-01-07T17:05:09.557Z,4.63
2023-01-07T17:07:54.386Z,5.01
2023-01-07T17:10:39.457Z,6.83
2023-01-07T17:13:24.603Z,9.55
2023-01-07T17:16:09.832Z,9.08
2023-01-07T17:18:54.910Z,6.33
2023-01-07T17:21:39.848Z,6.18
2023-01-07T17:24:24.705Z,6.76
2023-01-07T17:27:09.521Z,6.17
2023-01-07T17:29:54.489Z,7.67
2023-01-07T17:32:39.214Z,8.79
2023-01-07T17:35:24.236Z,8.07
2023-01-07T17:38:09.056Z,6.55
2023-01-07T17:40:54.024Z,5.95
2023-01-07T17:43:39.035Z,8.67
2023-01-07T17:46:24.209Z,8.17
2023-01-07T17:49:09.457Z,10.04
2023-01-07T17:51:54.939Z,10.55
2023-01-07T17:54:40.116Z,8.92
2023-01-07T17:57:25.057Z,9.31
2023-01-07T18:00:10.041Z,13.30
2023-01-07T18:02:55.025Z,10.55
2023-01-07T18:05:40.375Z,10.26
2023-01-07T18:08:25.669Z,10.78
2023-01-07T18:11:10.633Z,10.17
2023-01-07T18:13:56.098Z,9.10
2023-01-07T18:16:41.075Z,8.23
2023-01-07T18:19:25.787Z,8.35
2023-01-07T18:22:10.608Z,7.38
2023-01-07T18:24:55.366Z,7.05
2023-01-07T18:27:40.277Z,7.18
2023-01-07T18:30:25.217Z,7.42
2023-01-07T18:33:09.983Z,8.93
2023-01-07T18:35:54.762Z,9.17
2023-01-07T18:38:39.683Z,10.59
2023-01-07T18:41:24.452Z,10.16
2023-01-07T18:44:09.343Z,10.34
2023-01-07T18:46:54.369Z,9.38
2023-01-07T18:49:39.280Z,9.31
2023-01-07T18:52:24.249Z,9.78
2023-01-07T18:55:09.061Z,9.96
2023-01-07T18:57:53.999Z,9.19
2023-01-07T19:00:38.802Z,8.90
2023-01-07T19:03:24.154Z,8.16
2023-01-07T19:06:08.932Z,8.33
2023-01-07T19:08:53.758Z,7.99
2023-01-07T19:11:38.637Z,7.58
2023-01-07T19:14:23.499Z,7.92
2023-01-07T19:17:08.500Z,8.83
2023-01-07T19:19:53.303Z,9.49
2023-01-07T19:22:38.106Z,8.72
2023-01-07T19:25:22.896Z,6.67
2023-01-07T19:28:07.870Z,6.55
2023-01-07T19:30:52.621Z,6.88
2023-01-07T19:33:37.493Z,7.35
2023-01-07T19:36:22.419Z,8.17
2023-01-07T19:39:07.232Z,7.76
2023-01-07T19:41:52.178Z,7.68
2023-01-07T19:44:37.023Z,6.98
2023-01-07T19:47:21.817Z,7.95
2023-01-07T19:50:06.743Z,6.64
2023-01-07T19:52:51.693Z,6.27
2023-01-07T19:55:36.349Z,6.60
2023-01-07T19:58:21.190Z,6.96
2023-01-07T20:01:06.220Z,7.64
2023-01-07T20:03:51.408Z,7.35
2023-01-07T20:06:36.347Z,6.78
2023-01-07T20:09:21.129Z,6.06
2023-01-07T20:12:06.131Z,6.85
2023-01-07T20:14:51.107Z,7.37
2023-01-07T20:17:36.089Z,8.62
2023-01-07T20:20:20.825Z,8.89
2023-01-07T20:23:05.677Z,8.38
2023-01-07T20:25:50.550Z,8.75
2023-01-07T20:28:35.535Z,8.70
2023-01-07T20:31:20.415Z,10.43
2023-01-07T20:34:05.093Z,11.25
2023-01-07T20:36:50.088Z,11.66
2023-01-07T20:39:34.851Z,10.44
2023-01-07T20:42:19.776Z,9.48
2023-01-07T20:45:04.572Z,10.28
2023-01-07T20:47:49.480Z,14.80
2023-01-07T20:50:34.339Z,9.65
2023-01-07T20:53:19.189Z,7.50
2023-01-07T20:56:04.177Z,10.90
2023-01-07T20:58:49.142Z,9.83
2023-01-07T21:01:34.136Z,9.18
2023-01-07T21:04:19.453Z,8.77
2023-01-07T21:07:04.487Z,7.26
2023-01-07T21:09:49.304Z,7.22
2023-01-07T21:12:34.366Z,6.75
2023-01-07T21:15:19.322Z,6.81
2023-01-07T21:18:04.205Z,7.38
2023-01-07T21:20:49.192Z,8.10
2023-01-07T21:23:34.109Z,10.22
2023-01-07T21:26:18.952Z,10.57
2023-01-07T21:29:03.788Z,11.34
2023-01-07T21:31:48.742Z,12.33
2023-01-07T21:34:33.583Z,10.26
2023-01-07T21:37:18.482Z,9.82
2023-01-07T21:40:03.501Z,9.63
2023-01-07T21:42:48.437Z,9.51
2023-01-07T21:45:33.338Z,9.79
2023-01-07T21:48:18.105Z,10.38
2023-01-07T21:51:03.065Z,10.41
2023-01-07T21:53:48.022Z,9.74
2023-01-07T21:56:33.043Z,9.00
2023-01-07T21:59:18.106Z,7.94
2023-01-07T22:02:03.263Z,8.55
2023-01-07T22:04:48.589Z,8.13
2023-01-07T22:07:33.484Z,8.42
2023-01-07T22:10:18.413Z,9.12
2023-01-07T22:13:03.468Z,10.40
2023-01-07T22:15:48.499Z,8.98
2023-01-07T22:18:33.333Z,8.30
2023-01-07T22:21:18.167Z,8.09
2023-01-07T22:24:03.065Z,7.62
2023-01-07T22:26:47.964Z,7.59
2023-01-07T22:29:32.731Z,7.90
2023-01-07T22:32:17.553Z,7.22
2023-01-07T22:35:02.501Z,7.53
2023-01-07T22:37:47.450Z,7.29
2023-01-07T22:40:32.459Z,7.73
2023-01-07T22:43:17.430Z,7.09
2023-01-07T22:46:02.347Z,6.81
2023-01-07T22:48:47.151Z,6.42
2023-01-07T22:51:32.114Z,6.23
2023-01-07T22:54:16.847Z,6.96
2023-01-07T22:57:01.645Z,6.56
2023-01-07T22:59:47.279Z,6.59
2023-01-07T23:02:32.611Z,6.23
2023-01-07T23:05:17.641Z,6.29
2023-01-07T23:08:02.503Z,6.54
2023-01-07T23:10:47.512Z,6.86
2023-01-07T23:13:32.700Z,6.72
2023-01-07T23:16:17.849Z,6.63
2023-01-07T23:19:02.741Z,7.13
2023-01-07T23:21:47.607Z,6.75
2023-01-07T23:24:32.577Z,6.87
2023-01-07T23:27:17.387Z,6.50
2023-01-07T23:30:02.400Z,6.27
2023-01-07T23:32:47.167Z,5.99
2023-01-07T23:35:32.160Z,5.99
2023-01-07T23:38:17.052Z,6.22
2023-01-07T23:41:01.850Z,5.51
2023-01-07T23:43:46.758Z,5.81
2023-01-07T23:46:31.557Z,5.66
2023-01-07T23:49:16.537Z,5.60
2023-01-07T23:52:01.462Z,5.25
2023-01-07T23:54:46.375Z,5.13
2023-01-07T23:57:31.098Z,5.65
